McCall, ID

3:44 AM MDT on October 20, 2014 (GMT -0600)
MAP MCCALL AIR (P023) ID PSD | Change Station
CLOSE
Current Station
Personal Weather Station
Location: McCall, ID
Elevation: 4993 ft
Nearby Weather Stations

Elev 4993 ft 44.90 °N, 116.10 °W | Updated 44 minutes ago

Clear
Clear
36 °F
Feels Like 26 °F
N
16
Wind Variable Wind from NNW
Gusts 0.0 mph

Today
High -- | Low -- °F
--% Chance of Precip.
Yesterday
High -- | Low -- °F
Precip. -- in
8:06 AM 6:50 PM
Waning Crescent, 12% visible
Pressure 29.89 in
Visibility 10.0 miles
Clouds Clear
Windchill 26 °F
Dew Point 33 °F
Humidity 86%
Rainfall -999.00 in
Snow Depth Not available.
UV 0 out of 12
Pollen 3.90 out of 12
Air Quality Not available.
Flu Activity Sporadic
METAR KMYL 200851Z AUTO 05004KT 10SM CLR 02/M01 A2995 RMK AO2 SLP121 T00221011 55003 $

More Conditions Fewer Conditions

Pressure 29.89 in
Visibility 10.0 miles
Clouds Clear
Windchill 26 °F
Dew Point 33 °F
Humidity 86%
Rainfall -999.00 in
Snow Depth Not available.
UV 0 out of 12
Pollen 3.90 out of 12
Air Quality Not available.
Flu Activity Sporadic
METAR KMYL 200851Z AUTO 05004KT 10SM CLR 02/M01 A2995 RMK AO2 SLP121 T00221011 55003 $

More Conditions Fewer Conditions

10-Day Weather Forecast

Almanac

Astronomy

Oct. 20, 2014 Rise Set
Actual Time 8:06 AM MDT 6:50 PM MDT
Civil Twilight 7:36 AM MDT 7:20 PM MDT
Nautical Twilight 7:02 AM MDT 7:54 PM MDT
Astronomical Twilight 6:28 AM MDT 8:28 PM MDT
Moon 4:51 AM MDT 5:22 PM MDT
Length of Visible Light 11h 43m
Length of Day
10h 44m
Waning Crescent, 12% of the Moon is Illuminated
Today
Waning Crescent
Oct 23
New
Oct 30
First Quarter
Nov 6
Full
Nov 14
Last Quarter

Today's Extremes

State Highs State Lows

Community

WunderPhotos

Upload Photos

1,763,325 photos uploaded!

Nearby

Snow Depth

Station Depth Elevation
Bear Basin 1 in 5350 ft
Long Valley 0 in 4890 ft
Brundage Reservoir 0 in 6300 ft
Squaw Flat 1 in 6240 ft
Secesh Summit 0 in 6520 ft

Earthquake Activity

City Distance Mag. Time & Date
No recent earthquake activity has been reported nearby.
Minimum magnitude displayed is 2.5.

Coastal Water Temperatures

Place Temperature
No Stations Reporting

Nearby Weather Stations